Time;durP1;ratioP1;P1;durP2;ratioP2;P2;SDS_P1;SDS_P2;PMS_P1;PMS_P2;Temp;Humidity;BMP_temperature;BMP_pressure;BME280_temperature;BME280_humidity;BME280_pressure;Samples;Min_cycle;Max_cycle;Signal;HPM_P1;HPM_P2
2022/12/16 00:00:20;;;;;;;6.15;2.30;;;2.90;99.90;;;1.79;82.39;100612.97;4189462;28;20029;-74
2022/12/16 00:02:21;;;;;;;5.50;2.88;;;2.90;99.90;;;1.74;82.30;100613.25;4167121;28;20107;-74
2022/12/16 00:04:22;;;;;;;3.97;2.38;;;2.90;99.90;;;1.75;82.18;100616.69;4150729;28;20026;-74
2022/12/16 00:06:27;;;;;;;4.97;2.85;;;2.90;99.90;;;1.70;82.17;100621.38;4166891;28;20075;-74
2022/12/16 00:08:32;;;;;;;11.07;2.80;;;2.80;99.90;;;1.75;82.77;100633.13;4167421;28;20489;-74
2022/12/16 00:10:51;;;;;;;5.30;2.58;;;2.80;99.90;;;1.72;82.38;100633.34;4167214;28;20536;-74
2022/12/16 00:12:52;;;;;;;4.55;2.70;;;2.80;99.90;;;1.64;82.87;100631.25;4153003;28;20540;-75
2022/12/16 00:14:54;;;;;;;3.50;2.33;;;2.80;99.90;;;1.62;83.19;100635.72;4166908;28;20025;-74
2022/12/16 00:16:54;;;;;;;4.18;2.42;;;2.70;99.90;;;1.68;83.06;100634.47;4167040;28;20108;-74
2022/12/16 00:18:55;;;;;;;3.72;2.17;;;2.70;99.90;;;1.66;83.16;100634.59;4168366;28;20025;-75
2022/12/16 00:20:57;;;;;;;5.82;2.40;;;2.80;99.90;;;1.65;83.12;100639.88;4167010;28;20057;-74
2022/12/16 00:22:58;;;;;;;5.72;2.53;;;2.70;99.90;;;1.60;83.28;100634.16;4168284;28;20022;-74
2022/12/16 00:24:59;;;;;;;7.97;2.30;;;2.70;99.90;;;1.67;83.57;100646.63;4167051;28;20025;-74
2022/12/16 00:27:00;;;;;;;5.25;2.72;;;2.70;99.90;;;1.61;83.15;100641.03;4166751;28;20029;-74
2022/12/16 00:29:01;;;;;;;6.18;2.00;;;2.70;99.90;;;1.67;83.50;100638.03;4149449;28;20030;-74
2022/12/16 00:31:02;;;;;;;4.45;2.30;;;2.80;99.90;;;1.61;83.81;100634.03;4166920;28;20492;-74
2022/12/16 00:33:04;;;;;;;7.15;3.00;;;2.70;99.90;;;1.57;83.61;100642.16;4166850;28;20151;-74
2022/12/16 00:35:05;;;;;;;5.15;2.30;;;2.70;99.90;;;1.49;83.90;100634.84;4166823;28;20018;-74
2022/12/16 00:37:06;;;;;;;3.83;2.33;;;2.70;99.90;;;1.57;83.86;100636.97;4149444;28;20030;-74
2022/12/16 00:39:07;;;;;;;5.53;2.67;;;2.70;99.90;;;1.57;84.18;100640.41;4197571;28;20021;-74
2022/12/16 00:41:08;;;;;;;6.57;2.65;;;2.60;99.90;;;1.44;83.97;100631.72;4145279;28;20434;-74
2022/12/16 00:43:09;;;;;;;5.15;2.40;;;2.60;99.90;;;1.45;84.62;100645.56;4171005;28;20037;-74
2022/12/16 00:45:10;;;;;;;6.20;2.38;;;2.60;99.90;;;1.39;85.03;100632.97;4169576;28;20029;-74
2022/12/16 00:47:11;;;;;;;6.68;2.33;;;2.50;99.90;;;1.46;84.92;100642.03;4170812;28;20029;-74
2022/12/16 00:49:12;;;;;;;8.27;2.78;;;2.50;99.90;;;1.45;84.56;100637.75;4169575;28;20064;-74
2022/12/16 00:51:13;;;;;;;9.40;3.25;;;2.50;99.90;;;1.51;85.06;100647.75;4170779;28;20405;-74
2022/12/16 00:53:14;;;;;;;4.72;2.85;;;2.60;99.90;;;1.46;84.99;100644.66;4170593;28;20037;-74
2022/12/16 00:55:16;;;;;;;4.20;2.22;;;2.60;99.90;;;1.41;84.97;100639.72;4170646;28;20040;-74
2022/12/16 00:57:17;;;;;;;5.85;2.80;;;2.60;99.90;;;1.41;85.31;100646.69;4152782;28;20053;-74
2022/12/16 00:59:18;;;;;;;5.20;2.47;;;2.50;99.90;;;1.49;85.14;100650.44;4169564;28;20033;-74
2022/12/16 01:01:19;;;;;;;4.85;2.67;;;2.60;99.90;;;1.44;85.76;100639.53;4169271;28;20056;-74
2022/12/16 01:03:19;;;;;;;3.60;2.33;;;2.60;99.90;;;1.45;86.08;100650.75;4170754;28;20088;-74
2022/12/16 01:05:25;;;;;;;6.10;2.33;;;2.50;99.90;;;1.39;85.47;100651.16;4170609;28;20025;-74
2022/12/16 01:07:26;;;;;;;5.68;2.63;;;2.50;99.90;;;1.40;86.16;100650.25;4153378;28;20037;-74
2022/12/16 01:09:27;;;;;;;5.20;2.40;;;2.50;99.90;;;1.39;86.08;100652.00;4170442;28;20030;-74
2022/12/16 01:11:28;;;;;;;10.40;2.80;;;2.50;99.90;;;1.36;86.38;100652.19;4169146;28;20037;-74
2022/12/16 01:13:29;;;;;;;4.30;2.45;;;2.50;99.90;;;1.34;86.33;100668.81;4169257;28;20034;-74
2022/12/16 01:15:30;;;;;;;5.22;2.10;;;2.40;99.90;;;1.40;86.58;100666.66;4168960;28;20041;-74
2022/12/16 01:17:31;;;;;;;5.80;2.40;;;2.40;99.90;;;1.28;86.28;100666.63;4169001;28;20493;-74
2022/12/16 01:19:32;;;;;;;5.57;2.78;;;2.40;99.90;;;1.19;86.98;100667.22;4170291;28;20080;-74
2022/12/16 01:21:33;;;;;;;6.53;2.13;;;2.30;99.90;;;1.07;87.37;100659.28;4170326;28;20033;-74
2022/12/16 01:23:34;;;;;;;3.08;2.20;;;2.20;99.90;;;1.00;87.99;100667.53;4170272;28;20481;-75
2022/12/16 01:25:35;;;;;;;4.57;2.17;;;2.20;99.90;;;0.93;88.40;100667.09;4170126;28;20025;-74
2022/12/16 01:27:36;;;;;;;4.68;2.92;;;2.10;99.90;;;0.90;88.59;100675.06;4169632;28;20029;-74
2022/12/16 01:29:37;;;;;;;4.20;2.60;;;2.00;99.90;;;0.91;88.62;100681.09;4170319;28;20037;-74
2022/12/16 01:31:38;;;;;;;3.88;2.28;;;2.00;99.90;;;0.80;89.38;100681.78;4168569;28;20040;-74
2022/12/16 01:33:39;;;;;;;2.85;1.95;;;1.90;99.90;;;0.66;89.97;100683.56;4168666;28;20029;-74
2022/12/16 01:35:40;;;;;;;6.28;1.98;;;1.90;99.90;;;0.71;90.58;100686.72;4152441;28;20504;-74
2022/12/16 01:37:41;;;;;;;4.72;2.55;;;1.80;99.90;;;0.63;91.23;100688.97;4170047;28;20029;-74
2022/12/16 01:39:41;;;;;;;4.65;2.83;;;1.70;99.90;;;0.59;91.52;100701.28;4151942;28;20033;-74
2022/12/16 01:41:42;;;;;;;4.50;2.20;;;1.70;99.90;;;0.57;91.68;100695.34;4169695;28;20036;-74
2022/12/16 01:43:45;;;;;;;5.00;2.65;;;1.70;99.90;;;0.51;91.92;100695.69;4170144;28;20033;-74
2022/12/16 01:45:46;;;;;;;5.85;2.33;;;1.60;99.90;;;0.44;92.30;100699.63;4170078;28;20029;-74
2022/12/16 01:47:47;;;;;;;6.43;2.30;;;1.60;99.90;;;0.41;92.67;100715.38;4169694;28;20029;-74
2022/12/16 01:50:10;;;;;;;8.65;2.80;;;1.50;99.90;;;0.43;93.30;100724.72;4169740;28;20405;-74
2022/12/16 01:52:24;;;;;;;5.30;2.40;;;1.50;99.90;;;0.35;93.51;100726.13;4168615;28;20441;-74
2022/12/16 01:54:42;;;;;;;4.22;2.13;;;1.40;99.90;;;0.34;93.72;100729.63;4152791;28;20528;-74
2022/12/16 01:56:53;;;;;;;8.70;3.25;;;1.40;99.90;;;0.34;94.10;100724.44;4154022;28;20030;-74
2022/12/16 01:58:56;;;;;;;4.05;2.35;;;1.40;99.90;;;0.23;94.46;100734.63;4168830;28;20495;-74
2022/12/16 02:00:58;;;;;;;6.28;2.22;;;1.30;99.90;;;0.11;95.05;100728.41;4168377;28;20017;-74
2022/12/16 02:02:59;;;;;;;11.77;2.80;;;1.30;99.90;;;0.07;95.33;100733.84;4167471;28;20037;-74
2022/12/16 02:05:19;;;;;;;3.45;2.25;;;1.20;99.90;;;0.17;95.93;100727.19;4168589;28;20017;-74
2022/12/16 02:07:20;;;;;;;4.45;2.42;;;1.20;99.90;;;0.05;96.11;100733.09;4169619;28;20088;-74
2022/12/16 02:09:21;;;;;;;5.50;2.38;;;1.20;99.90;;;0.08;96.26;100730.34;4169782;28;20021;-74
2022/12/16 02:12:16;;;;;;;4.90;2.08;;;1.20;99.90;;;0.10;96.51;100731.06;4168280;28;20059;-74
2022/12/16 02:14:56;;;;;;;6.82;2.85;;;1.20;99.90;;;0.05;96.94;100727.91;4165742;28;20052;-74
2022/12/16 02:17:25;;;;;;;5.57;2.55;;;1.10;99.90;;;-0.10;97.23;100740.88;4152890;28;20045;-74
2022/12/16 02:19:41;;;;;;;4.97;2.30;;;1.10;99.90;;;0.05;97.42;100738.28;4157187;28;20397;-74
2022/12/16 02:22:28;;;;;;;4.38;2.47;;;1.10;99.90;;;-0.07;97.62;100738.09;4169542;28;20481;-74
2022/12/16 02:25:14;;;;;;;4.25;2.42;;;1.00;99.90;;;-0.10;98.13;100750.38;4169407;28;20511;-74
2022/12/16 02:27:55;;;;;;;5.57;3.05;;;1.00;99.90;;;-0.20;98.75;100747.47;4168927;28;20048;-74
2022/12/16 02:30:32;;;;;;;14.75;2.67;;;1.00;99.90;;;-0.21;99.04;100747.59;4168341;28;20025;-74
2022/12/16 02:32:43;;;;;;;5.45;2.10;;;0.90;99.90;;;-0.32;99.25;100749.94;4167716;28;20095;-74
2022/12/16 02:35:14;;;;;;;7.25;2.63;;;0.80;99.90;;;-0.32;99.55;100750.78;4168060;28;20060;-74
2022/12/16 02:37:30;;;;;;;6.68;2.55;;;0.80;99.90;;;-0.46;99.77;100744.69;4156024;28;20497;-74
2022/12/16 02:39:38;;;;;;;5.03;2.60;;;0.80;99.90;;;-0.47;100.00;100756.81;4168169;28;20071;-74
2022/12/16 02:42:06;;;;;;;7.90;3.75;;;0.70;99.90;;;-0.50;100.00;100764.75;4167642;28;20401;-74
2022/12/16 02:44:10;;;;;;;6.50;2.60;;;0.70;99.90;;;-0.61;100.00;100761.94;4169171;28;20036;-74
2022/12/16 02:46:11;;;;;;;6.78;2.50;;;0.60;99.90;;;-0.53;100.00;100764.09;4168047;28;20156;-74
2022/12/16 02:48:12;;;;;;;6.00;2.85;;;0.60;99.90;;;-0.60;100.00;100755.84;4167746;28;20033;-74
2022/12/16 02:50:26;;;;;;;8.05;2.78;;;0.60;99.90;;;-0.62;100.00;100766.28;4167850;28;20505;-74
2022/12/16 02:52:32;;;;;;;5.85;2.92;;;0.50;99.90;;;-0.63;100.00;100772.38;4167403;28;20123;-74
2022/12/16 02:54:33;;;;;;;7.32;2.83;;;0.50;99.90;;;-0.70;100.00;100772.81;4163525;28;20128;-74
2022/12/16 02:56:58;;;;;;;7.22;3.33;;;0.50;99.90;;;-0.68;100.00;100776.97;4167524;28;20029;-74
2022/12/16 02:59:34;;;;;;;;;;;0.40;99.90;;;-0.76;100.00;100779.16;4169556;28;20029;-74
2022/12/16 03:01:56;;;;;;;4.95;2.58;;;0.40;99.90;;;-0.68;100.00;100779.56;4134355;28;19953;-74
2022/12/16 03:04:23;;;;;;;5.88;2.80;;;0.40;99.90;;;-0.71;100.00;100784.06;4155750;28;20033;-74
2022/12/16 03:06:27;;;;;;;3.85;2.70;;;0.40;99.90;;;-0.67;100.00;100778.66;4167420;28;20030;-74
2022/12/16 03:08:35;;;;;;;4.97;3.13;;;0.40;99.90;;;-0.79;100.00;100773.31;4167879;28;20032;-74
2022/12/16 03:10:51;;;;;;;8.88;3.25;;;0.40;99.90;;;-0.81;100.00;100767.38;4167694;28;20783;-74
2022/12/16 03:12:55;;;;;;;6.22;3.42;;;0.40;99.90;;;-0.84;100.00;100783.09;4167444;28;20493;-74
2022/12/16 03:14:56;;;;;;;6.40;3.25;;;0.30;99.90;;;-0.88;100.00;100786.75;4167304;28;20072;-74
2022/12/16 03:16:57;;;;;;;7.28;3.55;;;0.30;99.90;;;-0.93;100.00;100794.78;4168757;28;20025;-74
2022/12/16 03:19:05;;;;;;;5.03;3.25;;;0.30;99.90;;;-0.87;100.00;100801.38;4167586;28;20029;-74
2022/12/16 03:21:08;;;;;;;5.93;4.40;;;0.20;99.90;;;-0.84;100.00;100798.63;4168599;28;20018;-74
2022/12/16 03:23:19;;;;;;;5.47;3.13;;;0.30;99.90;;;-0.94;100.00;100800.03;4167598;28;20029;-74
2022/12/16 03:25:21;;;;;;;5.20;3.40;;;0.20;99.90;;;-0.93;100.00;100812.06;4167498;28;20030;-74
2022/12/16 03:28:18;;;;;;;5.35;3.42;;;0.20;99.90;;;-0.90;100.00;100810.16;4167166;28;20033;-74
2022/12/16 03:30:35;;;;;;;5.60;3.15;;;0.20;99.90;;;-0.99;100.00;100818.41;4143345;28;20048;-74
2022/12/16 03:32:47;;;;;;;8.98;4.00;;;0.20;99.90;;;-1.08;100.00;100811.13;4150911;28;20044;-74
2022/12/16 03:34:58;;;;;;;9.38;4.65;;;0.10;99.90;;;-1.07;100.00;100805.00;4166843;28;20064;-74
2022/12/16 03:37:04;;;;;;;5.22;3.28;;;0.10;99.90;;;-1.06;100.00;100818.78;4154308;28;20116;-74
2022/12/16 03:39:07;;;;;;;5.63;3.15;;;0.10;99.90;;;-1.08;100.00;100818.88;4183742;28;20028;-74
2022/12/16 03:41:08;;;;;;;10.80;4.53;;;0.10;99.90;;;-1.18;100.00;100815.94;4159382;28;20026;-74
2022/12/16 03:43:15;;;;;;;8.18;3.63;;;0.00;99.90;;;-1.26;100.00;100812.91;4167134;28;20036;-74
2022/12/16 03:45:23;;;;;;;9.20;3.28;;;0.00;99.90;;;-1.21;100.00;100816.09;4167212;28;20067;-74
2022/12/16 03:47:28;;;;;;;8.00;4.00;;;0.00;99.90;;;-1.24;100.00;100818.00;4167439;28;20037;-74
2022/12/16 03:49:28;;;;;;;8.05;3.20;;;0.00;99.90;;;-1.27;100.00;100831.09;4167374;28;20043;-74
2022/12/16 03:51:29;;;;;;;8.93;3.88;;;-0.10;99.90;;;-1.22;100.00;100826.50;4167361;28;20029;-74
2022/12/16 03:53:30;;;;;;;5.25;3.20;;;-0.10;99.90;;;-1.21;100.00;100815.25;4168279;28;20492;-74
2022/12/16 03:55:32;;;;;;;6.40;3.45;;;-0.10;99.90;;;-1.15;100.00;100820.94;4167350;28;20025;-74
2022/12/16 03:57:32;;;;;;;12.10;4.30;;;-0.10;99.90;;;-1.14;100.00;100835.56;4168226;28;20087;-74
2022/12/16 03:59:33;;;;;;;8.23;4.10;;;0.00;99.90;;;-1.28;100.00;100827.66;4168374;28;20056;-74
2022/12/16 04:01:34;;;;;;;7.35;3.38;;;0.00;99.90;;;-1.30;100.00;100832.09;4168287;28;20025;-75
2022/12/16 04:03:36;;;;;;;7.13;3.60;;;-0.10;99.90;;;-1.35;100.00;100826.31;4167176;28;20085;-74
2022/12/16 04:05:37;;;;;;;7.55;3.85;;;-0.10;99.90;;;-1.33;100.00;100834.84;4168340;28;20033;-75
2022/12/16 04:07:38;;;;;;;8.32;4.40;;;-0.10;99.90;;;-1.30;100.00;100834.69;4150691;28;20033;-74
2022/12/16 04:09:39;;;;;;;5.95;3.67;;;-0.20;99.90;;;-1.33;100.00;100829.66;4150750;28;20033;-75
2022/12/16 04:26:01;;;;;;;9.00;4.40;;;-0.20;99.90;;;-1.37;100.00;100845.41;4170023;28;20035;-74
2022/12/16 04:28:02;;;;;;;7.47;3.83;;;-0.20;99.90;;;-1.37;100.00;100850.56;4170189;28;20045;-74
2022/12/16 04:30:19;;;;;;;8.82;4.32;;;-0.20;99.90;;;-1.26;100.00;100846.56;4170232;28;20021;-74
2022/12/16 04:32:21;;;;;;;10.68;5.15;;;-0.10;99.90;;;-1.35;100.00;100844.44;4169696;28;20033;-74
2022/12/16 04:34:26;;;;;;;7.90;4.95;;;-0.10;99.90;;;-1.41;100.00;100855.09;4171042;28;20036;-74
